sensor_id;sensor_type;location;lat;lon;timestamp;pressure;altitude;pressure_sealevel;temperature;humidity
39729;BME280;25402;42.004;23.088;2022-10-16T00:56:24;98130.22;;;5.59;46.90
39729;BME280;25402;42.004;23.088;2022-10-16T00:59:06;98134.03;;;5.57;47.03
39729;BME280;25402;42.004;23.088;2022-10-16T01:01:56;97963.19;;;4.49;46.86
39729;BME280;25402;42.004;23.088;2022-10-16T01:04:42;98093.75;;;5.28;46.98
39729;BME280;25402;42.004;23.088;2022-10-16T01:07:20;98069.00;;;5.05;47.13
39729;BME280;25402;42.004;23.088;2022-10-16T01:10:20;97988.88;;;4.52;47.30
39729;BME280;25402;42.004;23.088;2022-10-16T01:13:13;97999.03;;;4.58;47.28
39729;BME280;25402;42.004;23.088;2022-10-16T01:16:05;97964.16;;;4.39;47.41
39729;BME280;25402;42.004;23.088;2022-10-16T01:18:54;97973.19;;;4.38;47.56
39729;BME280;25402;42.004;23.088;2022-10-16T01:21:47;98084.41;;;5.03;47.62
39729;BME280;25402;42.004;23.088;2022-10-16T01:24:51;98045.94;;;4.73;47.38
39729;BME280;25402;42.004;23.088;2022-10-16T01:27:48;98045.06;;;4.73;47.26
39729;BME280;25402;42.004;23.088;2022-10-16T01:30:37;97995.03;;;4.43;47.06
39729;BME280;25402;42.004;23.088;2022-10-16T02:46:23;98202.16;;;4.64;47.80
39729;BME280;25402;42.004;23.088;2022-10-16T02:49:07;98085.59;;;3.98;47.82
39729;BME280;25402;42.004;23.088;2022-10-16T02:51:46;98127.72;;;4.17;47.99
39729;BME280;25402;42.004;23.088;2022-10-16T02:57:46;98030.25;;;3.57;47.91
39729;BME280;25402;42.004;23.088;2022-10-16T03:00:17;98033.31;;;3.52;47.84
39729;BME280;25402;42.004;23.088;2022-10-16T03:03:21;98045.94;;;3.61;47.62
39729;BME280;25402;42.004;23.088;2022-10-16T03:06:07;98088.00;;;3.80;47.55
39729;BME280;25402;42.004;23.088;2022-10-16T03:08:42;98142.88;;;4.06;47.50
39729;BME280;25402;42.004;23.088;2022-10-16T03:11:15;98042.00;;;3.44;47.54
39729;BME280;25402;42.004;23.088;2022-10-16T03:14:07;98114.28;;;3.86;47.41
39729;BME280;25402;42.004;23.088;2022-10-16T03:17:13;98054.13;;;3.49;47.71
39729;BME280;25402;42.004;23.088;2022-10-16T03:23:19;98043.72;;;3.34;47.60
39729;BME280;25402;42.004;23.088;2022-10-16T03:26:51;98123.28;;;3.85;47.93
39729;BME280;25402;42.004;23.088;2022-10-16T03:29:33;98145.59;;;3.95;48.04
39729;BME280;25402;42.004;23.088;2022-10-16T03:32:22;98052.59;;;3.35;47.86
39729;BME280;25402;42.004;23.088;2022-10-16T03:35:10;98026.13;;;3.21;47.43
39729;BME280;25402;42.004;23.088;2022-10-16T03:37:58;98210.97;;;4.25;47.53
39729;BME280;25402;42.004;23.088;2022-10-16T03:40:56;98045.94;;;3.18;47.36
39729;BME280;25402;42.004;23.088;2022-10-16T03:43:48;98062.00;;;3.29;47.53
39729;BME280;25402;42.004;23.088;2022-10-16T03:47:00;98153.94;;;3.81;47.54
39729;BME280;25402;42.004;23.088;2022-10-16T03:49:38;98106.53;;;3.51;47.64
39729;BME280;25402;42.004;23.088;2022-10-16T03:52:38;98207.59;;;4.11;47.21
39729;BME280;25402;42.004;23.088;2022-10-16T04:05:10;98121.84;;;3.49;48.41
39729;BME280;25402;42.004;23.088;2022-10-16T04:08:23;98019.38;;;2.73;48.29
39729;BME280;25402;42.004;23.088;2022-10-16T04:11:29;98160.25;;;3.59;48.61
39729;BME280;25402;42.004;23.088;2022-10-16T04:14:23;98074.56;;;3.06;48.59
39729;BME280;25402;42.004;23.088;2022-10-16T04:37:49;98068.16;;;2.98;48.63
39729;BME280;25402;42.004;23.088;2022-10-16T04:40:21;98075.78;;;3.02;48.49
39729;BME280;25402;42.004;23.088;2022-10-16T04:43:06;98045.09;;;2.86;48.54
39729;BME280;25402;42.004;23.088;2022-10-16T04:46:22;98039.28;;;2.81;48.37
39729;BME280;25402;42.004;23.088;2022-10-16T04:48:58;98223.66;;;3.91;48.42
39729;BME280;25402;42.004;23.088;2022-10-16T04:51:54;98038.91;;;2.74;48.20
39729;BME280;25402;42.004;23.088;2022-10-16T04:54:47;98139.75;;;3.37;48.05
39729;BME280;25402;42.004;23.088;2022-10-16T04:57:55;98161.03;;;3.39;47.83
39729;BME280;25402;42.004;23.088;2022-10-16T05:00:54;98139.69;;;3.28;47.81
39729;BME280;25402;42.004;23.088;2022-10-16T05:06:50;98170.16;;;3.36;47.92
39729;BME280;25402;42.004;23.088;2022-10-16T05:09:28;98226.63;;;3.76;47.98
39729;BME280;25402;42.004;23.088;2022-10-16T05:12:13;98071.47;;;2.79;48.19
39729;BME280;25402;42.004;23.088;2022-10-16T05:15:17;98107.84;;;3.02;48.07
39729;BME280;25402;42.004;23.088;2022-10-16T05:18:09;98058.97;;;2.80;48.09
39729;BME280;25402;42.004;23.088;2022-10-16T05:21:09;98180.97;;;3.78;48.48
39729;BME280;25402;42.004;23.088;2022-10-16T05:27:18;98217.03;;;4.68;48.47
39729;BME280;25402;42.004;23.088;2022-10-16T05:30:09;98147.50;;;4.67;47.49
39729;BME280;25402;42.004;23.088;2022-10-16T05:33:03;98169.78;;;5.07;46.85
39729;BME280;25402;42.004;23.088;2022-10-16T05:35:47;98096.25;;;5.00;45.91
39729;BME280;25402;42.004;23.088;2022-10-16T05:38:36;98210.25;;;5.94;45.11
39729;BME280;25402;42.004;23.088;2022-10-16T05:41:28;98111.00;;;5.54;44.46
39729;BME280;25402;42.004;23.088;2022-10-16T05:51:09;98186.75;;;6.35;43.67
39729;BME280;25402;42.004;23.088;2022-10-16T05:54:04;98105.63;;;6.02;43.21
39729;BME280;25402;42.004;23.088;2022-10-16T09:21:41;98225.22;;;14.73;32.56
39729;BME280;25402;42.004;23.088;2022-10-16T09:28:17;98262.06;;;15.46;32.12
39729;BME280;25402;42.004;23.088;2022-10-16T09:31:21;98255.22;;;15.56;31.75
39729;BME280;25402;42.004;23.088;2022-10-16T09:37:18;98269.56;;;16.13;31.24
39729;BME280;25402;42.004;23.088;2022-10-16T09:39:50;98274.63;;;16.16;30.37
39729;BME280;25402;42.004;23.088;2022-10-16T09:42:31;98255.69;;;16.08;30.28
39729;BME280;25402;42.004;23.088;2022-10-16T09:45:00;98201.88;;;15.82;30.15
39729;BME280;25402;42.004;23.088;2022-10-16T09:47:29;98207.44;;;15.67;30.72
39729;BME280;25402;42.004;23.088;2022-10-16T09:50:00;98269.63;;;16.19;29.67
39729;BME280;25402;42.004;23.088;2022-10-16T09:52:33;98268.13;;;16.23;29.29
39729;BME280;25402;42.004;23.088;2022-10-16T09:55:17;98217.47;;;16.08;29.42
39729;BME280;25402;42.004;23.088;2022-10-16T09:57:51;98198.84;;;16.24;28.87
39729;BME280;25402;42.004;23.088;2022-10-16T10:00:19;98226.66;;;16.48;28.76
39729;BME280;25402;42.004;23.088;2022-10-16T10:02:47;98256.09;;;16.79;28.49
39729;BME280;25402;42.004;23.088;2022-10-16T10:05:19;98260.31;;;17.01;27.99
39729;BME280;25402;42.004;23.088;2022-10-16T10:07:57;98222.69;;;16.96;28.27
39729;BME280;25402;42.004;23.088;2022-10-16T10:10:27;98233.41;;;17.24;27.56
39729;BME280;25402;42.004;23.088;2022-10-16T10:12:55;98235.09;;;17.19;27.53
39729;BME280;25402;42.004;23.088;2022-10-16T10:15:23;98229.84;;;17.11;27.43
39729;BME280;25402;42.004;23.088;2022-10-16T10:17:53;98233.19;;;17.39;27.46
39729;BME280;25402;42.004;23.088;2022-10-16T10:20:26;98227.09;;;17.44;27.47
39729;BME280;25402;42.004;23.088;2022-10-16T10:22:55;98219.41;;;17.72;27.43
39729;BME280;25402;42.004;23.088;2022-10-16T10:31:13;98186.34;;;17.87;26.67
39729;BME280;25402;42.004;23.088;2022-10-16T10:33:44;98219.59;;;18.28;26.19
39729;BME280;25402;42.004;23.088;2022-10-16T10:36:25;98222.09;;;18.36;26.12
39729;BME280;25402;42.004;23.088;2022-10-16T10:38:58;98187.59;;;17.84;25.67
39729;BME280;25402;42.004;23.088;2022-10-16T10:42:00;98208.94;;;18.14;25.88
39729;BME280;25402;42.004;23.088;2022-10-16T10:44:51;98208.63;;;18.35;25.65
39729;BME280;25402;42.004;23.088;2022-10-16T10:47:26;98185.84;;;18.03;25.55
39729;BME280;25402;42.004;23.088;2022-10-16T10:50:02;98193.00;;;17.97;25.81
39729;BME280;25402;42.004;23.088;2022-10-16T10:52:43;98195.16;;;18.27;25.99
39729;BME280;25402;42.004;23.088;2022-10-16T10:55:23;98189.59;;;18.47;25.31
39729;BME280;25402;42.004;23.088;2022-10-16T10:58:24;98185.91;;;18.59;24.71
39729;BME280;25402;42.004;23.088;2022-10-16T11:01:01;98185.16;;;18.77;24.70
39729;BME280;25402;42.004;23.088;2022-10-16T11:03:44;98175.59;;;18.86;24.53
39729;BME280;25402;42.004;23.088;2022-10-16T11:06:16;98181.75;;;19.06;24.48
39729;BME280;25402;42.004;23.088;2022-10-16T11:08:48;98177.66;;;19.16;24.49
39729;BME280;25402;42.004;23.088;2022-10-16T11:11:20;98167.84;;;19.26;24.29
39729;BME280;25402;42.004;23.088;2022-10-16T11:13:55;98137.44;;;19.28;24.48
39729;BME280;25402;42.004;23.088;2022-10-16T11:16:27;98175.19;;;19.51;24.76
39729;BME280;25402;42.004;23.088;2022-10-16T11:18:59;98173.47;;;19.68;24.32
39729;BME280;25402;42.004;23.088;2022-10-16T11:21:32;98156.81;;;19.69;23.82
39729;BME280;25402;42.004;23.088;2022-10-16T11:24:06;98155.06;;;19.75;24.12
39729;BME280;25402;42.004;23.088;2022-10-16T11:26:41;98155.03;;;19.93;24.16
39729;BME280;25402;42.004;23.088;2022-10-16T11:29:15;98108.59;;;19.92;23.78
39729;BME280;25402;42.004;23.088;2022-10-16T11:31:48;98146.31;;;20.26;23.10
39729;BME280;25402;42.004;23.088;2022-10-16T11:34:22;98146.47;;;20.31;22.95
39729;BME280;25402;42.004;23.088;2022-10-16T11:36:55;98136.91;;;20.04;23.16
39729;BME280;25402;42.004;23.088;2022-10-16T11:39:25;98132.59;;;20.26;23.81
39729;BME280;25402;42.004;23.088;2022-10-16T11:41:56;98134.69;;;20.42;23.88
39729;BME280;25402;42.004;23.088;2022-10-16T11:44:41;98139.72;;;20.45;23.94
39729;BME280;25402;42.004;23.088;2022-10-16T11:47:20;98139.03;;;20.62;23.00
39729;BME280;25402;42.004;23.088;2022-10-16T11:49:53;98124.56;;;20.66;23.07
39729;BME280;25402;42.004;23.088;2022-10-16T11:52:28;98127.06;;;20.68;22.45
39729;BME280;25402;42.004;23.088;2022-10-16T11:55:03;98118.81;;;20.68;22.17
39729;BME280;25402;42.004;23.088;2022-10-16T11:57:33;98110.94;;;20.83;22.47
39729;BME280;25402;42.004;23.088;2022-10-16T12:00:06;98120.19;;;20.89;22.67
39729;BME280;25402;42.004;23.088;2022-10-16T12:02:44;98119.19;;;20.83;22.34
39729;BME280;25402;42.004;23.088;2022-10-16T12:05:22;98123.38;;;20.86;22.66
39729;BME280;25402;42.004;23.088;2022-10-16T12:07:58;98093.16;;;20.74;22.72
39729;BME280;25402;42.004;23.088;2022-10-16T12:10:29;98123.31;;;20.92;22.63
39729;BME280;25402;42.004;23.088;2022-10-16T12:13:04;98102.16;;;20.93;23.09
39729;BME280;25402;42.004;23.088;2022-10-16T12:15:33;98113.97;;;21.05;22.67
39729;BME280;25402;42.004;23.088;2022-10-16T12:18:00;98114.81;;;21.05;22.67
39729;BME280;25402;42.004;23.088;2022-10-16T12:20:29;98100.69;;;21.13;22.74
39729;BME280;25402;42.004;23.088;2022-10-16T12:22:59;98120.19;;;21.24;22.00
39729;BME280;25402;42.004;23.088;2022-10-16T12:25:29;98124.00;;;21.23;22.33
39729;BME280;25402;42.004;23.088;2022-10-16T12:27:59;98125.00;;;20.93;22.30
39729;BME280;25402;42.004;23.088;2022-10-16T12:30:30;98108.34;;;20.76;22.46
39729;BME280;25402;42.004;23.088;2022-10-16T12:33:00;98115.00;;;20.80;22.42
39729;BME280;25402;42.004;23.088;2022-10-16T12:35:30;98101.56;;;20.91;22.28
39729;BME280;25402;42.004;23.088;2022-10-16T12:38:07;98113.94;;;20.81;22.34
39729;BME280;25402;42.004;23.088;2022-10-16T12:40:37;98026.63;;;19.47;22.98
39729;BME280;25402;42.004;23.088;2022-10-16T12:43:13;98103.69;;;19.27;23.55
39729;BME280;25402;42.004;23.088;2022-10-16T12:46:01;98093.25;;;19.84;23.01
39729;BME280;25402;42.004;23.088;2022-10-16T12:48:28;98082.50;;;20.12;22.96
39729;BME280;25402;42.004;23.088;2022-10-16T12:50:56;98091.81;;;20.41;22.77
39729;BME280;25402;42.004;23.088;2022-10-16T12:53:25;98092.31;;;20.62;22.56
39729;BME280;25402;42.004;23.088;2022-10-16T12:56:04;98089.66;;;20.78;22.45
39729;BME280;25402;42.004;23.088;2022-10-16T12:58:46;98091.47;;;20.85;22.74
39729;BME280;25402;42.004;23.088;2022-10-16T13:01:27;98099.84;;;21.01;22.76
39729;BME280;25402;42.004;23.088;2022-10-16T13:06:53;98088.47;;;20.86;23.21
39729;BME280;25402;42.004;23.088;2022-10-16T13:09:40;98101.16;;;20.99;22.66
39729;BME280;25402;42.004;23.088;2022-10-16T13:15:16;98095.19;;;21.02;22.91
39729;BME280;25402;42.004;23.088;2022-10-16T13:17:55;98095.31;;;21.07;22.66
39729;BME280;25402;42.004;23.088;2022-10-16T13:20:29;98093.25;;;21.14;22.38
39729;BME280;25402;42.004;23.088;2022-10-16T13:23:09;98098.06;;;21.19;22.42
39729;BME280;25402;42.004;23.088;2022-10-16T13:25:58;98079.28;;;21.04;21.87
39729;BME280;25402;42.004;23.088;2022-10-16T13:28:29;98094.09;;;21.14;21.99
39729;BME280;25402;42.004;23.088;2022-10-16T13:30:59;98088.72;;;21.20;21.91
39729;BME280;25402;42.004;23.088;2022-10-16T13:33:32;98092.06;;;21.10;21.73
39729;BME280;25402;42.004;23.088;2022-10-16T13:36:00;98082.72;;;21.11;21.66
39729;BME280;25402;42.004;23.088;2022-10-16T13:38:29;98090.88;;;20.94;21.58
39729;BME280;25402;42.004;23.088;2022-10-16T13:40:58;98093.75;;;20.88;21.32
39729;BME280;25402;42.004;23.088;2022-10-16T13:43:28;98089.06;;;20.65;21.08
39729;BME280;25402;42.004;23.088;2022-10-16T13:45:58;98088.41;;;20.28;21.56
39729;BME280;25402;42.004;23.088;2022-10-16T13:48:26;98092.63;;;20.30;21.83
39729;BME280;25402;42.004;23.088;2022-10-16T13:51:03;98093.94;;;20.51;21.55
39729;BME280;25402;42.004;23.088;2022-10-16T13:53:32;98095.09;;;20.32;20.78
39729;BME280;25402;42.004;23.088;2022-10-16T13:55:59;98095.25;;;20.37;20.99
39729;BME280;25402;42.004;23.088;2022-10-16T13:58:27;98089.41;;;20.45;21.24
39729;BME280;25402;42.004;23.088;2022-10-16T14:00:56;98089.28;;;20.52;21.10
39729;BME280;25402;42.004;23.088;2022-10-16T14:03:24;98093.94;;;20.51;21.18
39729;BME280;25402;42.004;23.088;2022-10-16T14:05:53;98088.91;;;20.48;20.72
39729;BME280;25402;42.004;23.088;2022-10-16T14:08:23;98097.28;;;20.41;20.90
39729;BME280;25402;42.004;23.088;2022-10-16T14:10:54;98085.78;;;20.33;20.83
39729;BME280;25402;42.004;23.088;2022-10-16T14:13:29;98075.00;;;20.20;20.96
39729;BME280;25402;42.004;23.088;2022-10-16T14:15:57;98088.63;;;20.26;21.12
39729;BME280;25402;42.004;23.088;2022-10-16T14:18:27;98015.06;;;19.75;21.20
39729;BME280;25402;42.004;23.088;2022-10-16T14:21:02;98088.13;;;20.18;21.05
39729;BME280;25402;42.004;23.088;2022-10-16T14:23:35;98087.41;;;20.10;21.42
39729;BME280;25402;42.004;23.088;2022-10-16T14:26:22;98086.19;;;20.06;21.45
39729;BME280;25402;42.004;23.088;2022-10-16T14:29:03;98093.25;;;19.84;21.52
39729;BME280;25402;42.004;23.088;2022-10-16T14:31:32;98074.31;;;19.64;21.60
39729;BME280;25402;42.004;23.088;2022-10-16T14:34:01;98088.50;;;19.61;21.81
39729;BME280;25402;42.004;23.088;2022-10-16T14:36:29;98096.19;;;19.53;21.99
39729;BME280;25402;42.004;23.088;2022-10-16T14:39:01;98087.22;;;19.46;21.90
39729;BME280;25402;42.004;23.088;2022-10-16T14:41:30;98088.00;;;19.34;21.90
39729;BME280;25402;42.004;23.088;2022-10-16T14:44:01;98092.09;;;19.25;22.32
39729;BME280;25402;42.004;23.088;2022-10-16T14:46:32;98094.94;;;19.19;22.51
39729;BME280;25402;42.004;23.088;2022-10-16T14:49:03;98090.88;;;19.03;22.70
39729;BME280;25402;42.004;23.088;2022-10-16T14:51:31;98088.78;;;18.98;22.56
39729;BME280;25402;42.004;23.088;2022-10-16T14:54:00;98100.13;;;18.84;22.67
39729;BME280;25402;42.004;23.088;2022-10-16T14:56:30;98086.91;;;18.74;22.83
39729;BME280;25402;42.004;23.088;2022-10-16T14:58:57;98092.94;;;18.64;23.28
39729;BME280;25402;42.004;23.088;2022-10-16T15:01:25;98099.59;;;18.50;22.50
39729;BME280;25402;42.004;23.088;2022-10-16T15:03:52;98102.38;;;18.44;22.74
39729;BME280;25402;42.004;23.088;2022-10-16T15:06:20;98090.75;;;18.17;22.73
39729;BME280;25402;42.004;23.088;2022-10-16T15:08:47;98106.00;;;18.06;22.56
39729;BME280;25402;42.004;23.088;2022-10-16T15:11:17;98103.34;;;17.93;22.52
39729;BME280;25402;42.004;23.088;2022-10-16T15:13:45;98115.63;;;17.77;22.92
39729;BME280;25402;42.004;23.088;2022-10-16T15:16:14;98106.81;;;17.68;22.71
39729;BME280;25402;42.004;23.088;2022-10-16T15:18:42;98115.44;;;17.65;22.87
39729;BME280;25402;42.004;23.088;2022-10-16T15:21:14;98011.00;;;16.92;23.30
39729;BME280;25402;42.004;23.088;2022-10-16T15:23:48;98113.66;;;17.46;23.17
39729;BME280;25402;42.004;23.088;2022-10-16T15:26:17;98127.16;;;17.34;23.50
39729;BME280;25402;42.004;23.088;2022-10-16T15:28:44;98128.69;;;17.24;23.28
39729;BME280;25402;42.004;23.088;2022-10-16T15:31:11;98124.47;;;17.08;23.56
39729;BME280;25402;42.004;23.088;2022-10-16T15:33:38;98123.03;;;16.99;23.90
39729;BME280;25402;42.004;23.088;2022-10-16T15:36:05;98128.50;;;16.86;23.87
39729;BME280;25402;42.004;23.088;2022-10-16T15:38:33;98126.22;;;16.76;23.67
39729;BME280;25402;42.004;23.088;2022-10-16T15:41:04;98112.78;;;16.48;24.21
39729;BME280;25402;42.004;23.088;2022-10-16T15:43:33;98137.34;;;16.55;24.24
39729;BME280;25402;42.004;23.088;2022-10-16T15:46:02;98112.13;;;16.26;24.57
39729;BME280;25402;42.004;23.088;2022-10-16T15:48:30;98101.81;;;16.09;24.72
39729;BME280;25402;42.004;23.088;2022-10-16T15:50:57;98117.13;;;15.96;25.03
39729;BME280;25402;42.004;23.088;2022-10-16T15:53:24;98131.63;;;16.04;25.10
39729;BME280;25402;42.004;23.088;2022-10-16T15:55:51;98116.84;;;15.78;25.55
39729;BME280;25402;42.004;23.088;2022-10-16T15:58:19;98119.31;;;15.67;25.43
39729;BME280;25402;42.004;23.088;2022-10-16T16:01:07;98123.88;;;15.53;25.58
39729;BME280;25402;42.004;23.088;2022-10-16T16:03:38;98104.69;;;15.26;25.83
39729;BME280;25402;42.004;23.088;2022-10-16T16:06:19;98159.28;;;15.40;25.99
39729;BME280;25402;42.004;23.088;2022-10-16T16:09:11;98168.75;;;15.09;27.46
39729;BME280;25402;42.004;23.088;2022-10-16T22:48:30;98557.91;;;4.73;45.73
39729;BME280;25402;42.004;23.088;2022-10-16T22:51:25;98662.06;;;5.23;46.25
39729;BME280;25402;42.004;23.088;2022-10-16T22:54:19;98591.78;;;4.74;46.03
39729;BME280;25402;42.004;23.088;2022-10-16T22:57:17;98652.69;;;5.06;46.35
39729;BME280;25402;42.004;23.088;2022-10-16T22:59:55;98582.41;;;4.58;46.25
39729;BME280;25402;42.004;23.088;2022-10-16T23:02:55;98662.22;;;4.99;46.42
39729;BME280;25402;42.004;23.088;2022-10-16T23:09:11;98566.97;;;4.39;46.41
39729;BME280;25402;42.004;23.088;2022-10-16T23:54:05;98621.50;;;3.80;46.54
39729;BME280;25402;42.004;23.088;2022-10-16T23:56:58;98621.41;;;3.82;46.73
39729;BME280;25402;42.004;23.088;2022-10-16T23:59:35;98653.44;;;3.95;46.88
